Time;durP1;ratioP1;P1;durP2;ratioP2;P2;SDS_P1;SDS_P2;PMS_P1;PMS_P2;Temp;Humidity;BMP_temperature;BMP_pressure;BME280_temperature;BME280_humidity;BME280_pressure;Samples;Min_cycle;Max_cycle;Signal;HPM_P1;HPM_P2
2023/07/19 00:00:14;;;;;;;8.07;5.60;;;;;;;;;;4994341;28;20032;-74
2023/07/19 00:02:40;;;;;;;9.30;6.50;;;;;;;;;;4994440;28;20501;-74
2023/07/19 00:05:08;;;;;;;7.88;6.10;;;;;;;;;;4994660;28;20101;-74
2023/07/19 00:07:34;;;;;;;9.00;5.78;;;;;;;;;;4994306;28;20089;-74
2023/07/19 00:10:00;;;;;;;9.05;5.68;;;;;;;;;;4994256;28;20076;-74
2023/07/19 00:12:26;;;;;;;8.82;6.53;;;;;;;;;;4995682;28;20030;-74
2023/07/19 00:14:52;;;;;;;9.82;7.18;;;;;;;;;;5013661;28;20528;-74
2023/07/19 00:17:18;;;;;;;8.55;6.78;;;;;;;;;;5013972;28;20029;-74
2023/07/19 00:19:44;;;;;;;7.88;6.35;;;;;;;;;;5013392;28;20137;-74
2023/07/19 00:22:10;;;;;;;8.43;6.70;;;;;;;;;;5013665;28;20497;-74
2023/07/19 00:24:36;;;;;;;7.53;6.05;;;;;;;;;;5013489;28;20096;-74
2023/07/19 00:27:02;;;;;;;7.70;6.43;;;;;;;;;;5013456;28;20089;-74
2023/07/19 00:29:28;;;;;;;8.13;6.15;;;;;;;;;;5013756;28;20465;-74
2023/07/19 00:31:54;;;;;;;8.13;6.70;;;;;;;;;;5013761;28;20108;-74
2023/07/19 00:34:20;;;;;;;9.27;6.40;;;;;;;;;;5013296;28;20465;-73
2023/07/19 00:36:46;;;;;;;8.13;6.43;;;;;;;;;;5013339;28;20018;-74
2023/07/19 00:39:13;;;;;;;7.32;6.38;;;;;;;;;;5013354;28;20018;-74
2023/07/19 00:41:39;;;;;;;9.18;6.57;;;;;;;;;;5013218;28;20029;-74
2023/07/19 00:44:05;;;;;;;9.68;6.93;;;;;;;;;;5013237;28;20475;-74
2023/07/19 00:46:31;;;;;;;8.25;6.47;;;;;;;;;;5013600;28;20087;-74
2023/07/19 00:48:57;;;;;;;9.68;6.60;;;;;;;;;;5013117;28;20097;-74
2023/07/19 00:51:24;;;;;;;9.20;6.78;;;;;;;;;;5013149;28;20021;-74
2023/07/19 00:53:50;;;;;;;8.20;6.85;;;;;;;;;;5012976;28;20030;-74
2023/07/19 00:56:16;;;;;;;8.95;7.25;;;;;;;;;;5013133;28;20116;-74
2023/07/19 00:58:43;;;;;;;7.65;6.85;;;;;;;;;;5013062;28;20101;-74
2023/07/19 01:01:09;;;;;;;11.82;7.25;;;;;;;;;;5031948;28;20026;-74
2023/07/19 01:03:35;;;;;;;9.40;7.00;;;;;;;;;;5032926;28;20096;-74
2023/07/19 01:06:03;;;;;;;8.75;7.03;;;;;;;;;;5031494;28;20443;-74
2023/07/19 01:08:30;;;;;;;8.38;7.05;;;;;;;;;;5033182;28;20021;-74
2023/07/19 01:10:56;;;;;;;8.02;6.82;;;;;;;;;;5032696;28;20420;-74
2023/07/19 01:13:22;;;;;;;12.57;7.30;;;;;;;;;;5032573;28;20043;-74
2023/07/19 01:15:48;;;;;;;8.35;6.93;;;;;;;;;;5032610;28;20465;-74
2023/07/19 01:18:14;;;;;;;7.90;7.10;;;;;;;;;;5032730;28;20022;-74
2023/07/19 01:20:40;;;;;;;8.57;7.50;;;;;;;;;;5032259;28;20041;-74
2023/07/19 01:23:06;;;;;;;8.48;6.80;;;;;;;;;;5032294;28;20449;-74
2023/07/19 01:25:32;;;;;;;10.07;7.07;;;;;;;;;;5032007;28;20072;-74
2023/07/19 01:28:00;;;;;;;9.48;7.20;;;;;;;;;;5032476;28;20025;-74
2023/07/19 01:30:26;;;;;;;9.88;7.43;;;;;;;;;;5032696;28;20460;-74
2023/07/19 01:32:52;;;;;;;8.90;7.32;;;;;;;;;;5032265;28;20025;-74
2023/07/19 01:35:18;;;;;;;8.57;7.28;;;;;;;;;;5032496;28;20491;-74
2023/07/19 01:37:44;;;;;;;8.90;7.35;;;;;;;;;;5032109;28;20076;-74
2023/07/19 01:40:11;;;;;;;8.63;7.20;;;;;;;;;;5032096;28;20021;-74
2023/07/19 01:42:37;;;;;;;9.63;7.60;;;;;;;;;;5032171;28;20030;-74
2023/07/19 01:45:03;;;;;;;9.57;7.80;;;;;;;;;;5032353;28;20492;-73
2023/07/19 01:47:29;;;;;;;8.95;7.40;;;;;;;;;;5032144;28;20026;-74
2023/07/19 01:49:55;;;;;;;10.32;8.13;;;;;;;;;;5032101;28;20144;-74
2023/07/19 01:52:22;;;;;;;9.73;7.50;;;;;;;;;;5032283;28;20037;-74
2023/07/19 01:54:48;;;;;;;9.00;7.88;;;;;;;;;;5032041;28;20029;-74
2023/07/19 01:57:14;;;;;;;8.57;7.18;;;;;;;;;;5032316;28;20103;-74
2023/07/19 01:59:40;;;;;;;9.25;7.55;;;;;;;;;;5032090;28;20064;-74
2023/07/19 02:02:06;;;;;;;10.63;7.45;;;;;;;;;;5031999;28;20028;-74
2023/07/19 02:04:32;;;;;;;8.65;7.50;;;;;;;;;;5031934;28;20040;-74
2023/07/19 02:06:58;;;;;;;9.27;7.57;;;;;;;;;;5031824;28;20025;-74
2023/07/19 02:09:24;;;;;;;10.93;8.02;;;;;;;;;;5031983;28;20513;-74
2023/07/19 02:11:50;;;;;;;10.30;7.80;;;;;;;;;;5031465;28;20510;-74
2023/07/19 02:14:16;;;;;;;10.93;8.18;;;;;;;;;;5016024;28;20084;-74
2023/07/19 02:16:42;;;;;;;9.00;7.20;;;;;;;;;;5015979;28;20033;-74
2023/07/19 02:19:08;;;;;;;9.93;7.35;;;;;;;;;;5015907;28;20088;-74
2023/07/19 02:21:34;;;;;;;10.70;8.00;;;;;;;;;;5015345;28;20046;-74
2023/07/19 02:24:00;;;;;;;9.77;7.25;;;;;;;;;;5015750;28;20069;-74
2023/07/19 02:26:26;;;;;;;9.50;7.47;;;;;;;;;;5015748;28;20058;-74
2023/07/19 02:28:52;;;;;;;10.02;7.57;;;;;;;;;;5015282;28;20372;-74
2023/07/19 02:31:18;;;;;;;9.77;8.15;;;;;;;;;;5015585;28;20030;-74
2023/07/19 02:33:44;;;;;;;10.45;7.78;;;;;;;;;;5015643;28;20392;-74
2023/07/19 02:36:11;;;;;;;9.95;8.38;;;;;;;;;;5015583;28;20030;-74
2023/07/19 02:38:37;;;;;;;11.90;7.63;;;;;;;;;;5015648;28;20026;-74
2023/07/19 02:41:07;;;;;;;11.55;7.55;;;;;;;;;;5015520;28;20048;-74
2023/07/19 02:43:33;;;;;;;9.18;7.85;;;;;;;;;;5015674;28;20026;-74
2023/07/19 02:45:59;;;;;;;9.90;7.93;;;;;;;;;;5015115;28;20041;-74
2023/07/19 02:48:25;;;;;;;10.38;8.00;;;;;;;;;;5015341;28;20022;-74
2023/07/19 02:50:51;;;;;;;10.95;7.78;;;;;;;;;;5015805;28;20694;-74
2023/07/19 02:53:24;;;;;;;9.43;7.88;;;;;;;;;;5015405;28;20662;-74
2023/07/19 02:55:50;;;;;;;11.10;7.72;;;;;;;;;;5015421;28;20034;-73
2023/07/19 02:58:16;;;;;;;11.02;8.40;;;;;;;;;;5015282;28;20033;-74
2023/07/19 03:00:42;;;;;;;10.20;7.82;;;;;;;;;;5015202;28;20061;-74
2023/07/19 03:03:12;;;;;;;11.55;8.73;;;;;;;;;;5013869;28;20026;-74
2023/07/19 03:05:39;;;;;;;10.57;8.32;;;;;;;;;;5015204;28;20030;-74
2023/07/19 03:08:06;;;;;;;10.20;8.18;;;;;;;;;;5015445;28;20018;-74
2023/07/19 03:10:32;;;;;;;10.20;7.95;;;;;;;;;;5015133;28;20030;-74
2023/07/19 03:12:58;;;;;;;11.38;8.25;;;;;;;;;;5014996;28;20033;-74
2023/07/19 03:15:25;;;;;;;9.93;8.25;;;;;;;;;;5015013;28;20030;-74
2023/07/19 03:17:51;;;;;;;9.50;7.93;;;;;;;;;;5015222;28;20061;-74
2023/07/19 03:20:17;;;;;;;10.60;8.20;;;;;;;;;;5014655;28;20054;-74
2023/07/19 03:22:43;;;;;;;9.88;8.18;;;;;;;;;;5014126;28;20034;-74
2023/07/19 03:25:09;;;;;;;9.27;7.68;;;;;;;;;;5014602;28;20042;-74
2023/07/19 03:27:35;;;;;;;12.23;8.15;;;;;;;;;;5014863;28;20025;-74
2023/07/19 03:30:02;;;;;;;10.02;7.57;;;;;;;;;;5014710;28;20035;-74
2023/07/19 03:32:29;;;;;;;10.00;7.57;;;;;;;;;;5013388;28;20034;-74
2023/07/19 03:34:55;;;;;;;10.80;7.82;;;;;;;;;;5014939;28;20029;-74
2023/07/19 03:37:22;;;;;;;8.35;7.00;;;;;;;;;;5014523;28;20057;-74
2023/07/19 03:39:48;;;;;;;13.00;7.10;;;;;;;;;;5014552;28;20029;-74
2023/07/19 03:42:13;;;;;;;7.43;6.72;;;;;;;;;;5014465;28;20049;-74
2023/07/19 03:44:39;;;;;;;8.20;6.68;;;;;;;;;;5013116;28;20072;-74
2023/07/19 03:47:06;;;;;;;7.95;6.32;;;;;;;;;;5014400;28;20356;-74
2023/07/19 03:49:32;;;;;;;8.18;5.75;;;;;;;;;;5014013;28;20041;-74
2023/07/19 03:51:58;;;;;;;8.18;6.20;;;;;;;;;;5014190;28;20029;-74
2023/07/19 03:54:24;;;;;;;8.07;5.40;;;;;;;;;;5013930;28;20345;-74
2023/07/19 03:56:50;;;;;;;6.68;4.97;;;;;;;;;;5014002;28;20053;-74
2023/07/19 03:59:17;;;;;;;9.18;5.32;;;;;;;;;;5014259;28;20022;-74
2023/07/19 04:01:43;;;;;;;6.57;5.57;;;;;;;;;;5014000;28;20565;-74
2023/07/19 04:04:09;;;;;;;7.13;5.57;;;;;;;;;;5012741;28;20037;-74
2023/07/19 04:06:35;;;;;;;6.88;5.53;;;;;;;;;;5014013;28;20033;-74
2023/07/19 04:09:01;;;;;;;6.63;5.05;;;;;;;;;;5013798;28;20029;-74
2023/07/19 04:11:28;;;;;;;9.52;5.45;;;;;;;;;;5014324;28;20511;-74
2023/07/19 04:13:54;;;;;;;7.90;5.78;;;;;;;;;;5013762;28;20052;-74
2023/07/19 04:16:21;;;;;;;7.00;5.60;;;;;;;;;;5013830;28;20076;-74
2023/07/19 04:18:47;;;;;;;6.32;5.20;;;;;;;;;;5013826;28;20025;-74
2023/07/19 04:21:13;;;;;;;7.47;5.07;;;;;;;;;;5013370;28;20052;-74
2023/07/19 04:23:39;;;;;;;7.97;5.32;;;;;;;;;;5013670;28;20136;-74
2023/07/19 04:26:05;;;;;;;9.48;5.82;;;;;;;;;;5013568;28;20030;-74
2023/07/19 04:28:32;;;;;;;6.43;4.93;;;;;;;;;;5013610;28;20034;-74
2023/07/19 04:30:58;;;;;;;6.57;4.95;;;;;;;;;;5011206;28;20030;-74
2023/07/19 04:33:24;;;;;;;6.30;4.70;;;;;;;;;;5008211;28;20041;-74
2023/07/19 04:35:50;;;;;;;6.32;4.40;;;;;;;;;;5013482;28;20026;-73
2023/07/19 04:38:16;;;;;;;6.80;4.55;;;;;;;;;;5013728;28;20022;-73
2023/07/19 04:40:42;;;;;;;6.78;3.88;;;;;;;;;;5013375;28;20061;-74
2023/07/19 04:43:08;;;;;;;6.82;4.18;;;;;;;;;;5012032;28;20365;-74
2023/07/19 04:45:35;;;;;;;6.38;3.42;;;;;;;;;;4995855;28;20037;-74
2023/07/19 04:48:01;;;;;;;5.85;3.08;;;;;;;;;;5013438;28;20022;-74
2023/07/19 04:50:27;;;;;;;5.88;2.97;;;;;;;;;;5013364;28;20030;-74
2023/07/19 04:52:54;;;;;;;4.60;3.05;;;;;;;;;;5013476;28;20026;-74
2023/07/19 04:55:20;;;;;;;5.10;3.22;;;;;;;;;;5012933;28;20034;-74
2023/07/19 04:57:47;;;;;;;4.22;2.97;;;;;;;;;;5013238;28;20495;-74
2023/07/19 05:00:14;;;;;;;6.40;3.00;;;;;;;;;;5013374;28;20088;-74
2023/07/19 05:02:40;;;;;;;6.70;3.17;;;;;;;;;;5013384;28;20021;-74
2023/07/19 05:05:06;;;;;;;7.43;2.85;;;;;;;;;;5011461;28;20057;-74
2023/07/19 05:07:36;;;;;;;5.80;2.38;;;;;;;;;;5013040;28;20033;-74
2023/07/19 05:10:03;;;;;;;6.97;2.05;;;;;;;;;;5012921;28;20025;-73
2023/07/19 05:12:30;;;;;;;5.10;1.95;;;;;;;;;;5012943;28;20025;-74
2023/07/19 05:14:56;;;;;;;4.30;2.30;;;;;;;;;;5012978;28;20480;-74
2023/07/19 05:17:22;;;;;;;1.92;1.67;;;;;;;;;;5011443;28;20028;-74
2023/07/19 05:19:48;;;;;;;4.82;1.90;;;;;;;;;;5011490;28;20018;-75
2023/07/19 05:22:14;;;;;;;1.80;1.40;;;;;;;;;;5012877;28;20025;-74
2023/07/19 05:24:40;;;;;;;2.80;1.63;;;;;;;;;;5012668;28;20539;-74
2023/07/19 05:27:06;;;;;;;2.42;1.48;;;;;;;;;;5012709;28;20018;-74
2023/07/19 05:29:33;;;;;;;3.38;1.40;;;;;;;;;;5012874;28;20026;-74
2023/07/19 05:31:59;;;;;;;3.40;1.55;;;;;;;;;;5012685;28;20069;-74
2023/07/19 05:34:25;;;;;;;1.73;1.27;;;;;;;;;;5012592;28;20119;-74
2023/07/19 05:36:52;;;;;;;2.83;1.42;;;;;;;;;;5012581;28;20030;-74
2023/07/19 05:39:18;;;;;;;2.35;1.42;;;;;;;;;;5012679;28;20033;-74
2023/07/19 05:41:44;;;;;;;2.58;1.23;;;;;;;;;;5012555;28;20076;-74
2023/07/19 05:44:10;;;;;;;2.45;1.13;;;;;;;;;;5012555;28;20037;-74
2023/07/19 05:46:36;;;;;;;1.83;1.20;;;;;;;;;;5014730;28;20080;-74
2023/07/19 05:49:03;;;;;;;3.13;0.95;;;;;;;;;;5016358;28;20030;-74
2023/07/19 05:51:29;;;;;;;5.05;1.10;;;;;;;;;;5016510;28;20064;-74
2023/07/19 05:53:55;;;;;;;1.83;1.05;;;;;;;;;;5016260;28;20041;-74
2023/07/19 05:56:21;;;;;;;4.05;1.08;;;;;;;;;;5001282;28;20027;-74
2023/07/19 05:58:48;;;;;;;1.67;1.00;;;;;;;;;;5004084;28;20061;-74
2023/07/19 06:01:17;;;;;;;1.48;0.98;;;;;;;;;;5014033;28;20060;-74
2023/07/19 06:03:44;;;;;;;1.55;1.20;;;;;;;;;;4998458;28;20030;-74
2023/07/19 06:06:10;;;;;;;3.13;1.30;;;;;;;;;;5016210;28;20017;-74
2023/07/19 06:08:36;;;;;;;2.53;1.10;;;;;;;;;;5016574;28;20068;-74
2023/07/19 06:11:02;;;;;;;2.28;1.40;;;;;;;;;;5016162;28;20033;-74
2023/07/19 06:13:28;;;;;;;2.95;1.40;;;;;;;;;;5016222;28;20037;-74
2023/07/19 06:15:56;;;;;;;4.22;1.35;;;;;;;;;;5016291;28;20037;-74
2023/07/19 06:18:22;;;;;;;2.92;1.30;;;;;;;;;;5016307;28;20113;-74
2023/07/19 06:20:48;;;;;;;2.25;1.10;;;;;;;;;;5015201;28;20082;-74
2023/07/19 06:23:14;;;;;;;2.15;1.00;;;;;;;;;;5015469;28;20441;-74
2023/07/19 06:25:41;;;;;;;2.17;0.80;;;;;;;;;;5015506;28;20025;-74
2023/07/19 06:28:07;;;;;;;3.05;0.80;;;;;;;;;;5015280;28;20018;-74
2023/07/19 06:30:33;;;;;;;2.60;0.80;;;;;;;;;;5015191;28;20523;-74
2023/07/19 06:32:58;;;;;;;4.13;1.00;;;;;;;;;;5015103;28;20038;-74
2023/07/19 06:35:24;;;;;;;1.10;0.75;;;;;;;;;;5015337;28;20022;-74
2023/07/19 06:37:51;;;;;;;1.17;1.00;;;;;;;;;;5015721;28;20111;-74
2023/07/19 06:40:17;;;;;;;1.35;0.80;;;;;;;;;;5015454;28;20471;-74
2023/07/19 06:42:43;;;;;;;1.73;0.90;;;;;;;;;;5015857;28;20057;-74
2023/07/19 06:45:09;;;;;;;0.82;0.82;;;;;;;;;;5015424;28;20084;-74
2023/07/19 06:47:35;;;;;;;1.33;0.80;;;;;;;;;;5015540;28;20079;-74
2023/07/19 06:50:02;;;;;;;3.55;1.00;;;;;;;;;;5015462;28;20504;-74
2023/07/19 06:52:28;;;;;;;3.03;1.15;;;;;;;;;;5015391;28;20031;-74
2023/07/19 06:54:54;;;;;;;2.47;0.95;;;;;;;;;;5015440;28;20033;-74
2023/07/19 06:57:20;;;;;;;1.60;1.00;;;;;;;;;;5014050;28;20048;-74
2023/07/19 06:59:49;;;;;;;1.55;1.05;;;;;;;;;;5015402;28;20045;-74
2023/07/19 07:02:18;;;;;;;1.88;1.17;;;;;;;;;;5015611;28;20065;-74
2023/07/19 07:04:44;;;;;;;3.25;1.15;;;;;;;;;;5015375;28;20025;-74
2023/07/19 07:07:11;;;;;;;1.73;0.70;;;;;;;;;;5015211;28;20021;-74
2023/07/19 07:09:37;;;;;;;2.28;0.95;;;;;;;;;;5015417;28;20038;-74
2023/07/19 07:12:04;;;;;;;3.25;1.10;;;;;;;;;;5015377;28;20046;-74
2023/07/19 07:14:30;;;;;;;1.52;1.13;;;;;;;;;;5015022;28;20119;-74
2023/07/19 07:16:56;;;;;;;2.53;1.20;;;;;;;;;;5014892;28;20457;-74
2023/07/19 07:19:22;;;;;;;5.22;1.30;;;;;;;;;;5015396;28;20032;-75
2023/07/19 07:21:48;;;;;;;1.92;1.27;;;;;;;;;;5014538;28;20042;-74
2023/07/19 07:24:14;;;;;;;1.83;1.15;;;;;;;;;;5014684;28;20084;-75
2023/07/19 07:26:40;;;;;;;2.85;1.10;;;;;;;;;;5014808;28;20034;-75
2023/07/19 07:29:06;;;;;;;3.60;1.20;;;;;;;;;;5014713;28;20088;-75
2023/07/19 07:31:32;;;;;;;2.33;1.33;;;;;;;;;;5014707;28;20037;-75
2023/07/19 07:33:58;;;;;;;3.78;1.10;;;;;;;;;;5014784;28;20496;-74
2023/07/19 07:36:25;;;;;;;3.05;1.23;;;;;;;;;;5014955;28;20030;-74
2023/07/19 07:38:51;;;;;;;1.75;1.00;;;;;;;;;;5014591;28;20026;-75
2023/07/19 07:41:17;;;;;;;3.45;1.15;;;;;;;;;;5014294;28;20468;-75
2023/07/19 07:43:43;;;;;;;3.13;1.25;;;;;;;;;;5013853;28;20034;-75
2023/07/19 07:46:09;;;;;;;2.08;1.30;;;;;;;;;;5014439;28;20484;-75
2023/07/19 07:48:35;;;;;;;1.95;1.00;;;;;;;;;;5014287;28;20026;-75
2023/07/19 07:51:01;;;;;;;4.15;1.50;;;;;;;;;;5014526;28;20100;-75
2023/07/19 07:53:27;;;;;;;2.15;1.23;;;;;;;;;;5014365;28;20450;-75
2023/07/19 07:55:53;;;;;;;4.50;1.75;;;;;;;;;;5014197;28;20080;-75
2023/07/19 07:58:19;;;;;;;2.28;1.48;;;;;;;;;;5014279;28;20038;-75
2023/07/19 08:00:46;;;;;;;2.55;1.00;;;;;;;;;;5014088;28;20080;-75
2023/07/19 08:03:14;;;;;;;1.58;0.90;;;;;;;;;;5014008;28;20022;-75
2023/07/19 08:05:40;;;;;;;2.15;0.80;;;;;;;;;;5014189;28;20022;-75
2023/07/19 08:08:06;;;;;;;5.78;1.45;;;;;;;;;;5013837;28;20167;-74
2023/07/19 08:10:41;;;;;;;2.85;1.23;;;;;;;;;;5014010;28;20026;-75
2023/07/19 08:13:08;;;;;;;2.83;1.30;;;;;;;;;;5013885;28;20030;-75
2023/07/19 08:15:34;;;;;;;2.35;0.98;;;;;;;;;;5013851;28;20469;-75
2023/07/19 08:18:00;;;;;;;2.85;1.08;;;;;;;;;;5013824;28;20062;-75
2023/07/19 08:20:26;;;;;;;3.03;1.20;;;;;;;;;;5013541;28;20081;-75
2023/07/19 08:22:52;;;;;;;3.10;0.98;;;;;;;;;;5013771;28;20034;-75
2023/07/19 08:25:19;;;;;;;4.25;1.02;;;;;;;;;;5013598;28;20053;-75
2023/07/19 08:27:45;;;;;;;2.08;1.20;;;;;;;;;;5013684;28;20061;-75
2023/07/19 08:30:17;;;;;;;1.60;1.10;;;;;;;;;;5013581;28;20185;-75
2023/07/19 08:32:47;;;;;;;2.55;1.20;;;;;;;;;;5013615;28;20022;-75
2023/07/19 08:35:14;;;;;;;1.23;0.93;;;;;;;;;;5013670;28;20091;-75
2023/07/19 08:37:40;;;;;;;3.15;1.10;;;;;;;;;;5013612;28;20118;-74
2023/07/19 08:40:07;;;;;;;2.78;1.10;;;;;;;;;;5013508;28;20022;-75
2023/07/19 08:42:33;;;;;;;2.35;1.02;;;;;;;;;;5013252;28;20104;-75
2023/07/19 08:45:00;;;;;;;2.97;1.30;;;;;;;;;;5013633;28;20038;-75
2023/07/19 08:47:26;;;;;;;4.28;1.50;;;;;;;;;;5013325;28;20026;-74
2023/07/19 08:49:52;;;;;;;2.95;1.10;;;;;;;;;;5013318;28;20025;-75
2023/07/19 08:52:18;;;;;;;1.55;0.93;;;;;;;;;;5013292;28;20133;-75
2023/07/19 08:54:44;;;;;;;2.30;1.00;;;;;;;;;;5013236;28;20492;-75
2023/07/19 08:57:10;;;;;;;2.22;1.05;;;;;;;;;;5013041;28;20034;-75
2023/07/19 08:59:36;;;;;;;2.28;1.52;;;;;;;;;;5013135;28;20033;-75
2023/07/19 09:02:03;;;;;;;2.17;1.40;;;;;;;;;;5013419;28;20113;-75
2023/07/19 09:04:29;;;;;;;2.92;1.35;;;;;;;;;;5013308;28;20080;-75
2023/07/19 09:06:55;;;;;;;3.20;1.50;;;;;;;;;;5013040;28;20022;-75
2023/07/19 09:09:21;;;;;;;2.42;1.55;;;;;;;;;;5013123;28;20018;-75
2023/07/19 09:11:50;;;;;;;1.70;1.08;;;;;;;;;;5013176;28;20041;-75
2023/07/19 09:14:16;;;;;;;3.53;1.80;;;;;;;;;;5012899;28;20104;-75
2023/07/19 09:16:46;;;;;;;2.53;1.33;;;;;;;;;;5013071;28;20034;-75
2023/07/19 09:19:12;;;;;;;2.40;1.27;;;;;;;;;;5013185;28;20133;-75
2023/07/19 09:21:38;;;;;;;4.43;1.88;;;;;;;;;;5011810;28;20148;-75
2023/07/19 09:24:05;;;;;;;3.28;1.50;;;;;;;;;;5012820;28;20029;-75
2023/07/19 09:26:44;;;;;;;2.72;1.30;;;;;;;;;;5012878;28;20366;-75
2023/07/19 09:29:11;;;;;;;1.63;1.27;;;;;;;;;;5012866;28;20347;-75
2023/07/19 09:31:53;;;;;;;4.10;1.65;;;;;;;;;;5012889;28;20018;-75
2023/07/19 09:34:19;;;;;;;3.00;2.05;;;;;;;;;;5013198;28;20044;-75
2023/07/19 09:36:46;;;;;;;3.83;1.80;;;;;;;;;;5014388;28;20018;-75
2023/07/19 09:39:12;;;;;;;2.25;1.50;;;;;;;;;;5012979;28;20033;-75
2023/07/19 09:41:38;;;;;;;2.42;1.58;;;;;;;;;;5012653;28;20026;-75
2023/07/19 09:44:09;;;;;;;4.15;1.70;;;;;;;;;;5012600;28;20033;-75
2023/07/19 09:46:36;;;;;;;3.25;1.60;;;;;;;;;;5012614;28;20057;-75
2023/07/19 09:49:02;;;;;;;3.05;1.40;;;;;;;;;;5012787;28;20116;-74
2023/07/19 09:51:30;;;;;;;2.83;1.63;;;;;;;;;;5012943;28;20466;-75
2023/07/19 09:53:56;;;;;;;2.60;1.73;;;;;;;;;;5015042;28;20037;-75
2023/07/19 09:56:22;;;;;;;3.03;1.55;;;;;;;;;;5015996;28;20133;-75
2023/07/19 09:58:49;;;;;;;3.13;1.17;;;;;;;;;;5012881;28;20029;-75
2023/07/19 10:01:15;;;;;;;2.28;1.30;;;;;;;;;;5015579;28;20033;-75
2023/07/19 10:03:44;;;;;;;3.50;1.65;;;;;;;;;;5014094;28;20034;-75
2023/07/19 10:06:10;;;;;;;3.07;1.60;;;;;;;;;;5012832;28;20094;-75
2023/07/19 10:08:36;;;;;;;2.33;1.40;;;;;;;;;;5012312;28;20261;-75
2023/07/19 10:11:03;;;;;;;3.05;1.67;;;;;;;;;;5012455;28;20026;-75
2023/07/19 10:13:32;;;;;;;2.30;2.10;;;;;;;;;;5012576;28;20022;-75
2023/07/19 10:15:58;;;;;;;;;;;;;;;;;;5012706;28;20084;-75
2023/07/19 10:18:24;;;;;;;3.30;1.88;;;;;;;;;;5012337;28;19905;-75
2023/07/19 10:21:02;;;;;;;3.90;1.90;;;;;;;;;;5011213;28;20155;-75
2023/07/19 10:23:30;;;;;;;2.80;1.90;;;;;;;;;;5012295;28;20619;-75
2023/07/19 10:25:57;;;;;;;1.73;1.45;;;;;;;;;;5012580;28;20029;-75
2023/07/19 10:28:30;;;;;;;3.95;1.30;;;;;;;;;;5012159;28;20049;-75
2023/07/19 10:31:07;;;;;;;2.13;1.63;;;;;;;;;;5012473;28;20025;-75
2023/07/19 10:33:34;;;;;;;5.43;1.80;;;;;;;;;;5015990;28;20484;-75
2023/07/19 10:36:06;;;;;;;2.58;1.50;;;;;;;;;;5017231;28;20072;-74
2023/07/19 10:38:33;;;;;;;1.90;1.40;;;;;;;;;;5015614;28;20026;-75
2023/07/19 10:41:00;;;;;;;4.63;1.17;;;;;;;;;;5015753;28;20091;-74
2023/07/19 10:43:27;;;;;;;3.22;1.67;;;;;;;;;;5015646;28;20026;-75
2023/07/19 10:45:53;;;;;;;2.30;1.60;;;;;;;;;;5015610;28;20486;-75
2023/07/19 10:48:21;;;;;;;3.90;1.95;;;;;;;;;;5016391;28;20072;-75
2023/07/19 10:50:48;;;;;;;3.38;2.00;;;;;;;;;;5016209;28;20026;-75
2023/07/19 10:53:14;;;;;;;2.83;1.80;;;;;;;;;;5015777;28;20112;-75
2023/07/19 10:55:41;;;;;;;2.35;1.65;;;;;;;;;;5015408;28;20065;-74
2023/07/19 10:58:07;;;;;;;5.13;2.10;;;;;;;;;;5016042;28;20022;-75
2023/07/19 11:00:35;;;;;;;1.98;1.50;;;;;;;;;;5015704;28;20030;-75
2023/07/19 11:03:01;;;;;;;3.10;1.70;;;;;;;;;;5015323;28;20033;-75
2023/07/19 11:05:27;;;;;;;3.60;1.80;;;;;;;;;;5015163;28;20033;-75
2023/07/19 11:07:53;;;;;;;2.88;1.67;;;;;;;;;;5015210;28;20113;-75
2023/07/19 11:10:19;;;;;;;3.63;1.70;;;;;;;;;;5015121;28;20030;-75
2023/07/19 11:12:45;;;;;;;2.05;1.80;;;;;;;;;;5015287;28;20026;-75
2023/07/19 11:15:11;;;;;;;2.33;1.80;;;;;;;;;;5015360;28;20029;-75
2023/07/19 11:17:38;;;;;;;3.13;1.73;;;;;;;;;;5016377;28;20030;-75
2023/07/19 11:20:05;;;;;;;2.60;1.30;;;;;;;;;;5014791;28;20024;-75
2023/07/19 11:22:32;;;;;;;1.85;1.60;;;;;;;;;;5015914;28;20022;-75
2023/07/19 11:24:58;;;;;;;1.20;1.10;;;;;;;;;;5014836;28;20037;-75
2023/07/19 11:27:34;;;;;;;2.13;1.63;;;;;;;;;;5014815;28;20116;-75
2023/07/19 11:30:00;;;;;;;2.72;1.40;;;;;;;;;;5014740;28;20077;-74
2023/07/19 11:32:26;;;;;;;3.60;1.60;;;;;;;;;;5014684;28;20014;-74
2023/07/19 11:34:53;;;;;;;4.53;1.90;;;;;;;;;;5014602;28;20026;-74
2023/07/19 11:37:26;;;;;;;1.48;1.20;;;;;;;;;;5014503;28;20022;-75
2023/07/19 11:39:53;;;;;;;3.08;1.40;;;;;;;;;;5014461;28;20037;-75
2023/07/19 11:42:38;;;;;;;3.45;1.45;;;;;;;;;;5014457;28;20029;-75
2023/07/19 11:45:10;;;;;;;3.15;1.20;;;;;;;;;;5013460;28;20034;-75
2023/07/19 11:47:36;;;;;;;3.65;1.23;;;;;;;;;;5014686;28;20026;-75
2023/07/19 11:50:03;;;;;;;2.67;1.48;;;;;;;;;;5014558;28;20066;-75
2023/07/19 11:52:29;;;;;;;2.03;1.40;;;;;;;;;;5014169;28;20022;-75
2023/07/19 11:54:55;;;;;;;3.53;1.73;;;;;;;;;;5014216;28;20044;-75
2023/07/19 11:57:21;;;;;;;2.35;1.30;;;;;;;;;;5014494;28;20022;-75
2023/07/19 11:59:49;;;;;;;2.55;1.33;;;;;;;;;;5014054;28;20029;-75
2023/07/19 12:02:16;;;;;;;1.38;0.95;;;;;;;;;;5014350;28;20029;-75
2023/07/19 12:04:42;;;;;;;2.47;1.30;;;;;;;;;;5014047;28;20080;-75
2023/07/19 12:07:08;;;;;;;2.25;0.82;;;;;;;;;;5014379;28;20026;-75
2023/07/19 12:09:34;;;;;;;3.17;1.30;;;;;;;;;;5012601;28;20029;-75
2023/07/19 12:12:00;;;;;;;2.25;1.10;;;;;;;;;;5013730;28;20022;-75
2023/07/19 12:14:26;;;;;;;1.88;1.08;;;;;;;;;;5014142;28;20037;-75
2023/07/19 12:16:54;;;;;;;2.70;0.90;;;;;;;;;;5014178;28;20480;-75
2023/07/19 12:19:20;;;;;;;2.88;1.23;;;;;;;;;;5013816;28;20022;-75
2023/07/19 12:21:46;;;;;;;1.85;0.77;;;;;;;;;;5011389;28;20132;-75
2023/07/19 12:24:13;;;;;;;2.10;0.90;;;;;;;;;;5012294;28;20461;-75
2023/07/19 12:26:39;;;;;;;3.03;0.88;;;;;;;;;;5013754;28;20079;-75
2023/07/19 12:29:05;;;;;;;1.77;1.10;;;;;;;;;;5012422;28;20026;-75
2023/07/19 12:31:31;;;;;;;2.53;0.90;;;;;;;;;;5013494;28;20057;-75
2023/07/19 12:33:57;;;;;;;1.65;0.82;;;;;;;;;;5013855;28;20372;-75
2023/07/19 12:36:23;;;;;;;1.95;0.98;;;;;;;;;;5013542;28;20531;-75
2023/07/19 12:38:49;;;;;;;2.67;0.90;;;;;;;;;;5013229;28;20558;-75
2023/07/19 12:41:16;;;;;;;2.17;0.90;;;;;;;;;;5013285;28;20022;-75
2023/07/19 12:43:42;;;;;;;1.70;0.98;;;;;;;;;;5013640;28;20334;-75
2023/07/19 12:46:08;;;;;;;3.13;1.00;;;;;;;;;;5013005;28;20128;-75
2023/07/19 12:48:35;;;;;;;0.80;0.70;;;;;;;;;;5013463;28;20535;-75
2023/07/19 12:51:03;;;;;;;1.48;0.88;;;;;;;;;;5013470;28;20029;-75
2023/07/19 12:53:29;;;;;;;2.75;1.00;;;;;;;;;;5013394;28;20021;-75
2023/07/19 12:55:55;;;;;;;1.10;0.80;;;;;;;;;;5012243;28;20553;-74
2023/07/19 12:58:21;;;;;;;1.60;0.85;;;;;;;;;;5007435;28;20026;-75
2023/07/19 13:00:47;;;;;;;2.22;0.90;;;;;;;;;;5001937;28;20022;-75
2023/07/19 13:03:13;;;;;;;1.98;0.60;;;;;;;;;;4997218;28;20018;-75
2023/07/19 13:05:40;;;;;;;2.10;0.73;;;;;;;;;;5012190;28;20036;-75
2023/07/19 13:08:06;;;;;;;2.35;1.40;;;;;;;;;;5008961;28;20034;-75
2023/07/19 13:10:32;;;;;;;1.25;0.70;;;;;;;;;;5013101;28;20022;-75
2023/07/19 13:12:58;;;;;;;1.65;0.88;;;;;;;;;;5012615;28;20026;-75
2023/07/19 13:15:24;;;;;;;2.35;0.82;;;;;;;;;;5012930;28;20109;-75
2023/07/19 13:17:50;;;;;;;1.55;0.70;;;;;;;;;;5013208;28;20026;-75
2023/07/19 13:20:16;;;;;;;1.08;0.63;;;;;;;;;;5012857;28;20026;-75
2023/07/19 13:22:43;;;;;;;1.80;0.93;;;;;;;;;;5012628;28;20425;-75
2023/07/19 13:25:09;;;;;;;1.00;0.63;;;;;;;;;;5012729;28;20026;-75
2023/07/19 13:27:36;;;;;;;3.15;1.00;;;;;;;;;;5013025;28;20034;-74
2023/07/19 13:30:01;;;;;;;1.98;1.00;;;;;;;;;;5012740;28;20026;-75
2023/07/19 13:32:28;;;;;;;1.05;0.60;;;;;;;;;;5012536;28;20105;-75
2023/07/19 13:34:54;;;;;;;1.15;0.70;;;;;;;;;;5012642;28;20037;-75
2023/07/19 13:37:20;;;;;;;2.65;0.63;;;;;;;;;;5012679;28;20084;-75
2023/07/19 13:39:46;;;;;;;3.92;0.80;;;;;;;;;;5012514;28;20535;-75
2023/07/19 13:42:12;;;;;;;2.10;0.90;;;;;;;;;;5012524;28;20096;-75
2023/07/19 13:44:38;;;;;;;1.88;0.88;;;;;;;;;;5012445;28;20527;-75
2023/07/19 13:47:04;;;;;;;1.75;0.80;;;;;;;;;;5012441;28;20041;-75
2023/07/19 13:49:30;;;;;;;2.35;0.70;;;;;;;;;;5012798;28;20096;-74
2023/07/19 13:51:56;;;;;;;2.97;0.90;;;;;;;;;;5011008;28;20472;-75
2023/07/19 13:54:23;;;;;;;0.93;0.63;;;;;;;;;;5012746;28;20034;-74
2023/07/19 13:56:49;;;;;;;2.42;0.70;;;;;;;;;;5012449;28;20492;-75
2023/07/19 13:59:15;;;;;;;1.48;0.88;;;;;;;;;;5012309;28;20056;-75
2023/07/19 14:01:41;;;;;;;2.03;1.02;;;;;;;;;;5012382;28;20109;-75
2023/07/19 14:04:07;;;;;;;3.88;1.27;;;;;;;;;;5012265;28;20030;-75
2023/07/19 14:06:33;;;;;;;1.63;0.88;;;;;;;;;;5012677;28;20041;-75
2023/07/19 14:08:59;;;;;;;2.50;1.08;;;;;;;;;;5005328;28;20426;-75
2023/07/19 14:11:25;;;;;;;3.30;1.40;;;;;;;;;;5024887;28;20029;-75
2023/07/19 14:13:51;;;;;;;2.35;1.20;;;;;;;;;;5010558;28;20686;-75
2023/07/19 14:16:17;;;;;;;2.22;1.13;;;;;;;;;;4997655;28;20038;-75
2023/07/19 14:18:47;;;;;;;1.88;1.13;;;;;;;;;;5016254;28;20431;-75
2023/07/19 14:21:13;;;;;;;0.90;0.88;;;;;;;;;;5015319;28;20058;-75
2023/07/19 14:23:40;;;;;;;2.25;1.48;;;;;;;;;;5014487;28;20125;-75
2023/07/19 14:26:06;;;;;;;2.35;1.30;;;;;;;;;;4996677;28;20027;-75
2023/07/19 14:28:32;;;;;;;3.63;1.60;;;;;;;;;;5002917;28;20023;-75
2023/07/19 14:30:58;;;;;;;2.45;1.08;;;;;;;;;;5015624;28;20037;-75
2023/07/19 14:33:27;;;;;;;3.83;1.45;;;;;;;;;;5016021;28;20034;-75
2023/07/19 14:35:53;;;;;;;3.50;1.00;;;;;;;;;;5016028;28;20524;-75
2023/07/19 14:38:20;;;;;;;1.83;0.98;;;;;;;;;;5015589;28;20022;-75